Hovedside
METAR-TAF:

METAR-TAF

Lufthavner :

Arvidsjaur lufthavn

Arvidsjaur, Sverige

breddegrad: 65-35-25N, lengdegrad: 019-16-55E, høyde over havet: 379 m

Gjeldene værobservasjon

Denne rapporten ble laget for 21 minutter siden, klokken 03:20 UTC
Vind 12 kt fra Sør-sørøst
Temperatur 13°C
Luftfuktighet 88%
Trykk 1004 hPa
Sikt 10 km eller mer

METAR: ESNX 180320Z AUTO 15012KT 9999 OVC012/// 13/11 Q1004

Tid: 05:41 (03:41 UTC)


TAF: fraværende

Værobservasjoner og værvarsel for over 4000 flyplasser (METAR- og TAF-rapporter).

Tilgjengelige stasjoner er representert av de røde og gule prikkene på kartet.

Hold musepekeren over prikken for å se navnet på stasjonen.

Klikk så for å se værobservasjoner og -varsler.

For å forandre kartet kan du klikke på den grønne knappen med svart kryss for å zoome inn, på den grønne knappen med strek for å zoome ut, eller på de grønne pilene for å se tilstøtende kart.


METAR-TAF: